sensor_id;sensor_type;location;lat;lon;timestamp;temperature;humidity
54158;DHT22;40065;49.894;10.358;2022-10-16T00:02:15;17.00;99.90
54158;DHT22;40065;49.894;10.358;2022-10-16T00:07:17;16.90;99.90
54158;DHT22;40065;49.894;10.358;2022-10-16T00:12:18;17.00;99.90
54158;DHT22;40065;49.894;10.358;2022-10-16T00:17:20;17.00;99.90
54158;DHT22;40065;49.894;10.358;2022-10-16T00:22:22;17.00;99.90
54158;DHT22;40065;49.894;10.358;2022-10-16T00:27:25;17.00;99.90
54158;DHT22;40065;49.894;10.358;2022-10-16T00:32:27;17.10;99.90
54158;DHT22;40065;49.894;10.358;2022-10-16T00:37:29;17.10;99.90
54158;DHT22;40065;49.894;10.358;2022-10-16T00:42:31;17.10;99.90
54158;DHT22;40065;49.894;10.358;2022-10-16T00:47:37;17.20;99.90
54158;DHT22;40065;49.894;10.358;2022-10-16T00:52:44;17.20;99.90
54158;DHT22;40065;49.894;10.358;2022-10-16T00:57:49;17.10;99.90
54158;DHT22;40065;49.894;10.358;2022-10-16T01:02:56;17.10;99.90
54158;DHT22;40065;49.894;10.358;2022-10-16T01:08:09;17.00;99.90
54158;DHT22;40065;49.894;10.358;2022-10-16T01:13:35;16.80;99.90
54158;DHT22;40065;49.894;10.358;2022-10-16T01:18:44;16.60;99.90
54158;DHT22;40065;49.894;10.358;2022-10-16T01:23:58;16.60;99.90
54158;DHT22;40065;49.894;10.358;2022-10-16T01:34:19;16.30;99.90
54158;DHT22;40065;49.894;10.358;2022-10-16T01:39:25;16.40;99.90
54158;DHT22;40065;49.894;10.358;2022-10-16T01:44:32;16.40;99.90
54158;DHT22;40065;49.894;10.358;2022-10-16T01:49:36;16.30;99.90
54158;DHT22;40065;49.894;10.358;2022-10-16T01:54:42;16.40;99.90
54158;DHT22;40065;49.894;10.358;2022-10-16T01:59:48;16.30;99.90
54158;DHT22;40065;49.894;10.358;2022-10-16T02:04:58;16.50;99.90
54158;DHT22;40065;49.894;10.358;2022-10-16T02:10:03;16.90;99.90
54158;DHT22;40065;49.894;10.358;2022-10-16T02:15:06;17.00;99.90
54158;DHT22;40065;49.894;10.358;2022-10-16T02:20:08;16.90;99.90
54158;DHT22;40065;49.894;10.358;2022-10-16T02:25:19;16.70;99.90
54158;DHT22;40065;49.894;10.358;2022-10-16T02:35:37;16.40;99.90
54158;DHT22;40065;49.894;10.358;2022-10-16T02:40:40;16.30;99.90
54158;DHT22;40065;49.894;10.358;2022-10-16T02:45:42;16.40;99.90
54158;DHT22;40065;49.894;10.358;2022-10-16T02:50:44;16.40;99.90
54158;DHT22;40065;49.894;10.358;2022-10-16T02:55:46;16.50;99.90
54158;DHT22;40065;49.894;10.358;2022-10-16T03:00:47;16.60;99.90
54158;DHT22;40065;49.894;10.358;2022-10-16T03:05:49;16.80;99.90
54158;DHT22;40065;49.894;10.358;2022-10-16T03:10:52;16.70;99.90
54158;DHT22;40065;49.894;10.358;2022-10-16T03:15:53;16.90;99.90
54158;DHT22;40065;49.894;10.358;2022-10-16T03:20:55;16.90;99.90
54158;DHT22;40065;49.894;10.358;2022-10-16T03:25:57;16.90;99.90
54158;DHT22;40065;49.894;10.358;2022-10-16T03:30:59;16.70;99.90
54158;DHT22;40065;49.894;10.358;2022-10-16T03:36:01;16.40;99.90
54158;DHT22;40065;49.894;10.358;2022-10-16T03:41:02;16.40;99.90
54158;DHT22;40065;49.894;10.358;2022-10-16T03:46:05;16.30;99.90
54158;DHT22;40065;49.894;10.358;2022-10-16T03:51:07;16.20;99.90
54158;DHT22;40065;49.894;10.358;2022-10-16T03:56:09;16.40;99.90
54158;DHT22;40065;49.894;10.358;2022-10-16T04:01:11;16.40;99.90
54158;DHT22;40065;49.894;10.358;2022-10-16T04:06:12;16.40;99.90
54158;DHT22;40065;49.894;10.358;2022-10-16T04:11:14;16.30;99.90
54158;DHT22;40065;49.894;10.358;2022-10-16T04:16:16;16.20;99.90
54158;DHT22;40065;49.894;10.358;2022-10-16T04:21:18;16.20;99.90
54158;DHT22;40065;49.894;10.358;2022-10-16T04:26:20;16.20;99.90
54158;DHT22;40065;49.894;10.358;2022-10-16T04:31:22;16.20;99.90
54158;DHT22;40065;49.894;10.358;2022-10-16T04:36:24;16.30;99.90
54158;DHT22;40065;49.894;10.358;2022-10-16T04:41:29;16.30;99.90
54158;DHT22;40065;49.894;10.358;2022-10-16T04:46:31;16.50;99.90
54158;DHT22;40065;49.894;10.358;2022-10-16T04:51:33;16.40;99.90
54158;DHT22;40065;49.894;10.358;2022-10-16T04:56:35;16.50;99.90
54158;DHT22;40065;49.894;10.358;2022-10-16T05:01:44;16.80;99.90
54158;DHT22;40065;49.894;10.358;2022-10-16T05:06:47;17.00;99.90
54158;DHT22;40065;49.894;10.358;2022-10-16T05:11:49;17.00;99.90
54158;DHT22;40065;49.894;10.358;2022-10-16T05:16:51;17.00;99.90
54158;DHT22;40065;49.894;10.358;2022-10-16T05:21:53;17.10;99.90
54158;DHT22;40065;49.894;10.358;2022-10-16T05:26:55;17.10;99.90
54158;DHT22;40065;49.894;10.358;2022-10-16T05:31:56;16.90;99.90
54158;DHT22;40065;49.894;10.358;2022-10-16T05:36:58;16.90;99.90
54158;DHT22;40065;49.894;10.358;2022-10-16T05:42:00;17.10;99.90
54158;DHT22;40065;49.894;10.358;2022-10-16T05:47:02;17.00;99.90
54158;DHT22;40065;49.894;10.358;2022-10-16T05:52:04;16.80;99.90
54158;DHT22;40065;49.894;10.358;2022-10-16T05:57:05;16.80;99.90
54158;DHT22;40065;49.894;10.358;2022-10-16T06:02:12;17.10;99.90
54158;DHT22;40065;49.894;10.358;2022-10-16T06:07:14;17.20;99.90
54158;DHT22;40065;49.894;10.358;2022-10-16T06:12:16;17.30;99.90
54158;DHT22;40065;49.894;10.358;2022-10-16T06:17:18;17.40;99.90
54158;DHT22;40065;49.894;10.358;2022-10-16T06:22:20;17.40;99.90
54158;DHT22;40065;49.894;10.358;2022-10-16T06:27:21;17.40;99.90
54158;DHT22;40065;49.894;10.358;2022-10-16T06:32:24;17.40;99.90
54158;DHT22;40065;49.894;10.358;2022-10-16T06:37:27;17.30;99.90
54158;DHT22;40065;49.894;10.358;2022-10-16T06:42:29;17.40;99.90
54158;DHT22;40065;49.894;10.358;2022-10-16T06:47:32;17.40;99.90
54158;DHT22;40065;49.894;10.358;2022-10-16T06:52:34;17.30;99.90
54158;DHT22;40065;49.894;10.358;2022-10-16T06:57:36;17.40;99.90
54158;DHT22;40065;49.894;10.358;2022-10-16T07:02:37;17.40;99.90
54158;DHT22;40065;49.894;10.358;2022-10-16T07:07:39;17.40;99.90
54158;DHT22;40065;49.894;10.358;2022-10-16T07:12:41;17.50;99.90
54158;DHT22;40065;49.894;10.358;2022-10-16T07:17:43;17.50;99.90
54158;DHT22;40065;49.894;10.358;2022-10-16T07:22:45;17.90;99.90
54158;DHT22;40065;49.894;10.358;2022-10-16T07:27:46;18.20;99.90
54158;DHT22;40065;49.894;10.358;2022-10-16T07:32:48;18.20;99.90
54158;DHT22;40065;49.894;10.358;2022-10-16T07:37:50;18.20;99.90
54158;DHT22;40065;49.894;10.358;2022-10-16T07:42:52;18.20;99.90
54158;DHT22;40065;49.894;10.358;2022-10-16T07:47:54;18.10;99.90
54158;DHT22;40065;49.894;10.358;2022-10-16T07:52:56;18.20;99.90
54158;DHT22;40065;49.894;10.358;2022-10-16T07:57:58;18.30;99.90
54158;DHT22;40065;49.894;10.358;2022-10-16T08:03:00;18.20;99.90
54158;DHT22;40065;49.894;10.358;2022-10-16T08:08:02;18.10;99.90
54158;DHT22;40065;49.894;10.358;2022-10-16T08:13:04;18.10;99.90
54158;DHT22;40065;49.894;10.358;2022-10-16T08:18:06;18.00;99.90
54158;DHT22;40065;49.894;10.358;2022-10-16T08:23:09;18.10;99.90
54158;DHT22;40065;49.894;10.358;2022-10-16T08:28:12;17.90;99.90
54158;DHT22;40065;49.894;10.358;2022-10-16T08:33:15;17.90;99.90
54158;DHT22;40065;49.894;10.358;2022-10-16T08:38:16;18.00;99.90
54158;DHT22;40065;49.894;10.358;2022-10-16T08:43:35;18.20;99.90
54158;DHT22;40065;49.894;10.358;2022-10-16T08:48:46;18.30;99.90
54158;DHT22;40065;49.894;10.358;2022-10-16T08:53:52;18.50;99.90
54158;DHT22;40065;49.894;10.358;2022-10-16T08:58:58;18.80;99.90
54158;DHT22;40065;49.894;10.358;2022-10-16T09:25:37;19.40;99.90
54158;DHT22;40065;49.894;10.358;2022-10-16T09:30:40;19.60;99.90
54158;DHT22;40065;49.894;10.358;2022-10-16T09:35:50;19.70;99.90
54158;DHT22;40065;49.894;10.358;2022-10-16T09:40:52;19.80;99.90
54158;DHT22;40065;49.894;10.358;2022-10-16T09:46:05;19.60;99.90
54158;DHT22;40065;49.894;10.358;2022-10-16T09:51:28;19.90;99.90
54158;DHT22;40065;49.894;10.358;2022-10-16T09:56:32;20.30;99.90
54158;DHT22;40065;49.894;10.358;2022-10-16T10:01:41;20.40;99.90
54158;DHT22;40065;49.894;10.358;2022-10-16T10:06:48;20.40;99.90
54158;DHT22;40065;49.894;10.358;2022-10-16T10:12:01;20.30;99.90
54158;DHT22;40065;49.894;10.358;2022-10-16T10:17:18;20.30;99.90
54158;DHT22;40065;49.894;10.358;2022-10-16T10:49:34;20.00;99.90
54158;DHT22;40065;49.894;10.358;2022-10-16T10:54:45;20.00;99.90
54158;DHT22;40065;49.894;10.358;2022-10-16T11:10:47;19.30;99.90
54158;DHT22;40065;49.894;10.358;2022-10-16T11:15:55;19.10;99.90
54158;DHT22;40065;49.894;10.358;2022-10-16T11:21:04;18.90;99.90
54158;DHT22;40065;49.894;10.358;2022-10-16T11:26:15;19.10;99.90
54158;DHT22;40065;49.894;10.358;2022-10-16T11:31:29;19.70;99.90
54158;DHT22;40065;49.894;10.358;2022-10-16T11:42:27;21.90;99.90
54158;DHT22;40065;49.894;10.358;2022-10-16T12:19:33;24.00;99.90
54158;DHT22;40065;49.894;10.358;2022-10-16T12:24:41;24.40;99.90
54158;DHT22;40065;49.894;10.358;2022-10-16T12:29:44;24.90;99.90
54158;DHT22;40065;49.894;10.358;2022-10-16T12:34:47;25.00;99.50
54158;DHT22;40065;49.894;10.358;2022-10-16T12:39:50;23.90;99.90
54158;DHT22;40065;49.894;10.358;2022-10-16T12:44:54;24.50;99.90
54158;DHT22;40065;49.894;10.358;2022-10-16T12:49:56;25.00;99.90
54158;DHT22;40065;49.894;10.358;2022-10-16T12:54:58;25.00;99.90
54158;DHT22;40065;49.894;10.358;2022-10-16T13:00:12;24.70;99.80
54158;DHT22;40065;49.894;10.358;2022-10-16T13:16:31;25.10;97.80
54158;DHT22;40065;49.894;10.358;2022-10-16T13:21:43;24.90;98.40
54158;DHT22;40065;49.894;10.358;2022-10-16T13:31:58;25.30;97.30
54158;DHT22;40065;49.894;10.358;2022-10-16T13:37:02;25.30;96.90
54158;DHT22;40065;49.894;10.358;2022-10-16T13:47:20;25.50;96.70
54158;DHT22;40065;49.894;10.358;2022-10-16T13:52:22;25.20;97.00
54158;DHT22;40065;49.894;10.358;2022-10-16T13:57:25;25.60;97.50
54158;DHT22;40065;49.894;10.358;2022-10-16T14:02:32;25.20;96.30
54158;DHT22;40065;49.894;10.358;2022-10-16T14:07:36;24.50;97.90
54158;DHT22;40065;49.894;10.358;2022-10-16T14:12:39;23.60;99.10
54158;DHT22;40065;49.894;10.358;2022-10-16T14:17:44;23.00;99.90
54158;DHT22;40065;49.894;10.358;2022-10-16T14:22:47;22.70;99.90
54158;DHT22;40065;49.894;10.358;2022-10-16T14:28:15;22.40;99.90
54158;DHT22;40065;49.894;10.358;2022-10-16T14:33:23;22.30;99.90
54158;DHT22;40065;49.894;10.358;2022-10-16T14:38:26;22.20;99.90
54158;DHT22;40065;49.894;10.358;2022-10-16T14:43:40;22.00;99.90
54158;DHT22;40065;49.894;10.358;2022-10-16T14:48:50;21.80;99.90
54158;DHT22;40065;49.894;10.358;2022-10-16T14:53:52;21.60;99.90
54158;DHT22;40065;49.894;10.358;2022-10-16T14:59:00;21.70;99.90
54158;DHT22;40065;49.894;10.358;2022-10-16T15:04:03;21.50;99.90
54158;DHT22;40065;49.894;10.358;2022-10-16T15:09:05;21.40;99.90
54158;DHT22;40065;49.894;10.358;2022-10-16T15:14:12;21.40;99.90
54158;DHT22;40065;49.894;10.358;2022-10-16T15:19:16;21.10;99.90
54158;DHT22;40065;49.894;10.358;2022-10-16T15:24:18;20.80;99.90
54158;DHT22;40065;49.894;10.358;2022-10-16T15:29:22;20.70;99.90
54158;DHT22;40065;49.894;10.358;2022-10-16T15:34:24;20.70;99.90
54158;DHT22;40065;49.894;10.358;2022-10-16T15:39:25;20.60;99.90
54158;DHT22;40065;49.894;10.358;2022-10-16T15:44:27;20.40;99.90
54158;DHT22;40065;49.894;10.358;2022-10-16T15:49:31;20.40;99.90
54158;DHT22;40065;49.894;10.358;2022-10-16T15:54:33;20.10;99.90
54158;DHT22;40065;49.894;10.358;2022-10-16T15:59:35;20.00;99.90
54158;DHT22;40065;49.894;10.358;2022-10-16T16:04:36;19.90;99.90
54158;DHT22;40065;49.894;10.358;2022-10-16T16:09:45;19.90;99.90
54158;DHT22;40065;49.894;10.358;2022-10-16T16:14:47;19.80;99.90
54158;DHT22;40065;49.894;10.358;2022-10-16T16:19:50;19.70;99.90
54158;DHT22;40065;49.894;10.358;2022-10-16T16:24:52;19.60;99.90
54158;DHT22;40065;49.894;10.358;2022-10-16T16:29:55;19.50;99.90
54158;DHT22;40065;49.894;10.358;2022-10-16T16:34:57;19.60;99.90
54158;DHT22;40065;49.894;10.358;2022-10-16T16:39:58;19.40;99.90
54158;DHT22;40065;49.894;10.358;2022-10-16T16:45:02;19.40;99.90
54158;DHT22;40065;49.894;10.358;2022-10-16T16:50:04;19.50;99.90
54158;DHT22;40065;49.894;10.358;2022-10-16T16:55:08;19.60;99.90
54158;DHT22;40065;49.894;10.358;2022-10-16T17:00:10;19.60;99.90
54158;DHT22;40065;49.894;10.358;2022-10-16T17:05:12;19.60;99.90
54158;DHT22;40065;49.894;10.358;2022-10-16T17:10:14;19.40;99.90
54158;DHT22;40065;49.894;10.358;2022-10-16T17:15:16;19.40;99.90
54158;DHT22;40065;49.894;10.358;2022-10-16T17:20:18;19.40;99.90
54158;DHT22;40065;49.894;10.358;2022-10-16T17:25:20;19.20;99.90
54158;DHT22;40065;49.894;10.358;2022-10-16T17:30:25;19.10;99.90
54158;DHT22;40065;49.894;10.358;2022-10-16T17:35:27;19.00;99.90
54158;DHT22;40065;49.894;10.358;2022-10-16T17:40:29;18.90;99.90
54158;DHT22;40065;49.894;10.358;2022-10-16T17:45:35;18.80;99.90
54158;DHT22;40065;49.894;10.358;2022-10-16T17:50:40;18.70;99.90
54158;DHT22;40065;49.894;10.358;2022-10-16T17:55:43;18.50;99.90
54158;DHT22;40065;49.894;10.358;2022-10-16T18:00:45;18.40;99.90
54158;DHT22;40065;49.894;10.358;2022-10-16T18:05:47;18.20;99.90
54158;DHT22;40065;49.894;10.358;2022-10-16T18:10:49;18.00;99.90
54158;DHT22;40065;49.894;10.358;2022-10-16T18:16:07;17.80;99.90
54158;DHT22;40065;49.894;10.358;2022-10-16T18:21:15;18.00;99.90
54158;DHT22;40065;49.894;10.358;2022-10-16T18:26:20;17.90;99.90
54158;DHT22;40065;49.894;10.358;2022-10-16T18:31:23;17.70;99.90
54158;DHT22;40065;49.894;10.358;2022-10-16T18:36:29;17.80;99.90
54158;DHT22;40065;49.894;10.358;2022-10-16T18:41:31;17.50;99.90
54158;DHT22;40065;49.894;10.358;2022-10-16T18:46:33;17.50;99.90
54158;DHT22;40065;49.894;10.358;2022-10-16T18:51:39;17.20;99.90
54158;DHT22;40065;49.894;10.358;2022-10-16T18:56:42;17.20;99.90
54158;DHT22;40065;49.894;10.358;2022-10-16T19:01:43;17.20;99.90
54158;DHT22;40065;49.894;10.358;2022-10-16T19:06:47;17.20;99.90
54158;DHT22;40065;49.894;10.358;2022-10-16T19:11:50;17.40;99.90
54158;DHT22;40065;49.894;10.358;2022-10-16T19:16:57;17.40;99.90
54158;DHT22;40065;49.894;10.358;2022-10-16T19:21:59;17.60;99.90
54158;DHT22;40065;49.894;10.358;2022-10-16T19:27:12;17.70;99.90
54158;DHT22;40065;49.894;10.358;2022-10-16T19:32:14;17.80;99.90
54158;DHT22;40065;49.894;10.358;2022-10-16T19:37:16;17.70;99.90
54158;DHT22;40065;49.894;10.358;2022-10-16T19:42:18;17.90;99.90
54158;DHT22;40065;49.894;10.358;2022-10-16T19:47:19;18.00;99.90
54158;DHT22;40065;49.894;10.358;2022-10-16T19:52:23;18.10;99.90
54158;DHT22;40065;49.894;10.358;2022-10-16T19:57:25;17.80;99.90
54158;DHT22;40065;49.894;10.358;2022-10-16T20:02:27;17.60;99.90
54158;DHT22;40065;49.894;10.358;2022-10-16T20:07:30;17.40;99.90
54158;DHT22;40065;49.894;10.358;2022-10-16T20:12:35;17.10;99.90
54158;DHT22;40065;49.894;10.358;2022-10-16T20:17:37;16.90;99.90
54158;DHT22;40065;49.894;10.358;2022-10-16T20:22:39;16.80;99.90
54158;DHT22;40065;49.894;10.358;2022-10-16T20:27:41;16.70;99.90
54158;DHT22;40065;49.894;10.358;2022-10-16T20:32:42;16.50;99.90
54158;DHT22;40065;49.894;10.358;2022-10-16T20:37:46;16.30;99.90
54158;DHT22;40065;49.894;10.358;2022-10-16T20:42:49;16.20;99.90
54158;DHT22;40065;49.894;10.358;2022-10-16T20:47:51;16.10;99.90
54158;DHT22;40065;49.894;10.358;2022-10-16T20:52:53;16.00;99.90
54158;DHT22;40065;49.894;10.358;2022-10-16T20:57:54;15.90;99.90
54158;DHT22;40065;49.894;10.358;2022-10-16T21:02:56;15.80;99.90
54158;DHT22;40065;49.894;10.358;2022-10-16T21:07:58;15.70;99.90
54158;DHT22;40065;49.894;10.358;2022-10-16T21:13:00;15.60;99.90
54158;DHT22;40065;49.894;10.358;2022-10-16T21:18:02;15.60;99.90
54158;DHT22;40065;49.894;10.358;2022-10-16T21:23:03;15.60;99.90
54158;DHT22;40065;49.894;10.358;2022-10-16T21:28:05;15.50;99.90
54158;DHT22;40065;49.894;10.358;2022-10-16T21:33:07;15.50;99.90
54158;DHT22;40065;49.894;10.358;2022-10-16T21:38:09;15.40;99.90
54158;DHT22;40065;49.894;10.358;2022-10-16T21:43:10;15.50;99.90
54158;DHT22;40065;49.894;10.358;2022-10-16T21:48:12;15.30;99.90
54158;DHT22;40065;49.894;10.358;2022-10-16T21:53:14;15.40;99.90
54158;DHT22;40065;49.894;10.358;2022-10-16T21:58:16;15.30;99.90
54158;DHT22;40065;49.894;10.358;2022-10-16T22:03:17;15.10;99.90
54158;DHT22;40065;49.894;10.358;2022-10-16T22:08:19;14.90;99.90
54158;DHT22;40065;49.894;10.358;2022-10-16T22:13:21;14.70;99.90
54158;DHT22;40065;49.894;10.358;2022-10-16T22:18:23;14.80;99.90
54158;DHT22;40065;49.894;10.358;2022-10-16T22:23:25;14.90;99.90
54158;DHT22;40065;49.894;10.358;2022-10-16T22:28:26;14.80;99.90
54158;DHT22;40065;49.894;10.358;2022-10-16T22:33:28;14.80;99.90
54158;DHT22;40065;49.894;10.358;2022-10-16T22:38:34;14.80;99.90
54158;DHT22;40065;49.894;10.358;2022-10-16T22:43:38;14.70;99.90
54158;DHT22;40065;49.894;10.358;2022-10-16T22:48:41;14.80;99.90
54158;DHT22;40065;49.894;10.358;2022-10-16T22:53:44;14.70;99.90
54158;DHT22;40065;49.894;10.358;2022-10-16T22:58:46;14.60;99.90
54158;DHT22;40065;49.894;10.358;2022-10-16T23:03:48;14.60;99.90
54158;DHT22;40065;49.894;10.358;2022-10-16T23:08:52;14.50;99.90
54158;DHT22;40065;49.894;10.358;2022-10-16T23:13:54;14.60;99.90
54158;DHT22;40065;49.894;10.358;2022-10-16T23:18:57;14.50;99.90
54158;DHT22;40065;49.894;10.358;2022-10-16T23:23:59;14.30;99.90
54158;DHT22;40065;49.894;10.358;2022-10-16T23:29:01;14.40;99.90
54158;DHT22;40065;49.894;10.358;2022-10-16T23:34:03;14.50;99.90
54158;DHT22;40065;49.894;10.358;2022-10-16T23:39:05;14.50;99.90
54158;DHT22;40065;49.894;10.358;2022-10-16T23:44:07;14.60;99.90
54158;DHT22;40065;49.894;10.358;2022-10-16T23:49:09;14.80;99.90
54158;DHT22;40065;49.894;10.358;2022-10-16T23:54:11;15.00;99.90
54158;DHT22;40065;49.894;10.358;2022-10-16T23:59:13;15.00;99.90
